createdAt,value
2023-10-10T00:01:46.015Z,11.85
2023-10-10T00:04:13.884Z,11.88
2023-10-10T00:06:42.234Z,11.80
2023-10-10T00:09:12.221Z,11.72
2023-10-10T00:11:43.374Z,11.72
2023-10-10T00:14:19.294Z,11.69
2023-10-10T00:16:49.313Z,11.74
2023-10-10T00:19:21.926Z,11.78
2023-10-10T00:21:49.967Z,11.79
2023-10-10T00:24:21.685Z,11.83
2023-10-10T00:26:51.722Z,11.85
2023-10-10T00:29:27.879Z,12.02
2023-10-10T00:32:07.019Z,12.09
2023-10-10T00:34:38.493Z,12.02
2023-10-10T00:37:14.453Z,12.05
2023-10-10T00:39:42.140Z,12.10
2023-10-10T00:42:20.997Z,12.16
2023-10-10T00:44:49.749Z,12.23
2023-10-10T00:47:22.742Z,12.44
2023-10-10T00:49:51.568Z,12.37
2023-10-10T00:52:19.649Z,12.42
2023-10-10T00:54:48.511Z,12.48
2023-10-10T00:57:18.920Z,12.44
2023-10-10T00:59:54.773Z,12.50
2023-10-10T01:02:22.265Z,12.48
2023-10-10T01:04:51.493Z,12.46
2023-10-10T01:07:23.031Z,12.43
2023-10-10T01:09:57.830Z,12.33
2023-10-10T01:12:30.191Z,12.54
2023-10-10T01:14:58.992Z,12.44
2023-10-10T01:17:33.817Z,12.41
2023-10-10T01:20:35.312Z,12.43
2023-10-10T01:23:04.518Z,12.46
2023-10-10T01:25:34.117Z,12.46
2023-10-10T01:28:15.082Z,12.49
2023-10-10T01:30:58.689Z,12.53
2023-10-10T01:33:37.957Z,12.58
2023-10-10T01:36:23.064Z,12.57
2023-10-10T01:39:01.319Z,12.60
2023-10-10T01:41:41.459Z,12.63
2023-10-10T01:44:24.306Z,12.64
2023-10-10T01:46:54.512Z,12.69
2023-10-10T01:49:23.054Z,12.72
2023-10-10T01:51:57.422Z,12.74
2023-10-10T01:54:36.130Z,12.74
2023-10-10T01:57:08.617Z,12.76
2023-10-10T01:59:40.156Z,12.75
2023-10-10T02:02:12.203Z,12.81
2023-10-10T02:04:40.873Z,12.76
2023-10-10T02:07:15.514Z,12.69
2023-10-10T02:09:44.922Z,12.62
2023-10-10T02:12:18.215Z,12.55
2023-10-10T02:14:45.372Z,12.41
2023-10-10T02:17:28.128Z,12.30
2023-10-10T02:19:59.583Z,12.21
2023-10-10T02:22:48.958Z,12.17
2023-10-10T02:25:25.892Z,12.12
2023-10-10T02:27:56.616Z,12.03
2023-10-10T02:30:38.176Z,11.98
2023-10-10T02:33:18.347Z,11.96
2023-10-10T02:36:04.534Z,12.06
2023-10-10T02:38:34.593Z,11.92
2023-10-10T02:41:34.524Z,11.82
2023-10-10T02:44:11.258Z,11.76
2023-10-10T02:46:44.105Z,11.66
2023-10-10T02:49:31.789Z,11.58
2023-10-10T02:52:02.432Z,11.53
2023-10-10T02:54:35.792Z,11.54
2023-10-10T02:57:23.235Z,11.51
2023-10-10T03:00:00.646Z,11.51
2023-10-10T03:02:31.841Z,11.50
2023-10-10T03:05:03.037Z,11.49
2023-10-10T03:07:31.464Z,11.41
2023-10-10T03:10:23.794Z,11.38
2023-10-10T03:12:54.151Z,11.35
2023-10-10T03:15:21.609Z,11.47
2023-10-10T03:18:10.705Z,11.39
2023-10-10T03:20:38.910Z,11.40
2023-10-10T03:23:15.710Z,11.28
2023-10-10T03:26:05.393Z,11.20
2023-10-10T03:28:48.749Z,11.15
2023-10-10T03:31:15.950Z,11.12
2023-10-10T03:33:44.983Z,11.25
2023-10-10T03:36:19.984Z,11.25
2023-10-10T03:38:50.197Z,11.15
2023-10-10T03:41:24.990Z,11.14
2023-10-10T03:44:15.620Z,11.32
2023-10-10T03:46:56.982Z,11.15
2023-10-10T03:49:51.774Z,11.12
2023-10-10T03:52:43.889Z,11.02
2023-10-10T03:55:30.040Z,11.00
2023-10-10T03:58:15.609Z,11.04
2023-10-10T04:01:00.862Z,11.02
2023-10-10T04:03:46.363Z,10.96
2023-10-10T04:06:32.446Z,10.87
2023-10-10T04:09:17.889Z,10.81
2023-10-10T04:12:03.642Z,10.76
2023-10-10T04:14:49.148Z,10.75
2023-10-10T04:17:34.637Z,10.79
2023-10-10T04:20:20.350Z,10.74
2023-10-10T04:23:05.508Z,10.80
2023-10-10T04:25:50.979Z,10.83
2023-10-10T04:28:36.243Z,10.77
2023-10-10T04:31:25.743Z,10.79
2023-10-10T04:34:11.854Z,10.80
2023-10-10T04:36:57.249Z,10.73
2023-10-10T04:39:43.091Z,10.74
2023-10-10T04:42:28.438Z,10.74
2023-10-10T04:45:13.945Z,10.70
2023-10-10T04:47:59.704Z,10.71
2023-10-10T04:50:45.424Z,10.72
2023-10-10T04:53:30.683Z,10.76
2023-10-10T04:56:17.393Z,10.81
2023-10-10T04:59:03.179Z,10.78
2023-10-10T05:01:48.899Z,10.81
2023-10-10T05:04:34.419Z,10.83
2023-10-10T05:07:19.751Z,10.81
2023-10-10T05:10:05.153Z,10.82
2023-10-10T05:12:50.526Z,10.82
2023-10-10T05:15:35.670Z,10.83
2023-10-10T05:18:20.787Z,10.82
2023-10-10T05:21:06.481Z,10.89
2023-10-10T05:23:36.299Z,10.91
2023-10-10T05:26:07.270Z,10.92
2023-10-10T05:28:34.257Z,10.94
2023-10-10T05:31:04.746Z,11.00
2023-10-10T05:33:32.235Z,11.04
2023-10-10T05:36:01.056Z,11.07
2023-10-10T05:38:28.171Z,11.16
2023-10-10T05:40:55.679Z,11.20
2023-10-10T05:43:27.762Z,11.27
2023-10-10T05:45:55.424Z,11.34
2023-10-10T05:48:23.130Z,11.42
2023-10-10T05:50:50.159Z,11.51
2023-10-10T05:53:18.418Z,11.56
2023-10-10T05:55:51.639Z,11.64
2023-10-10T05:58:19.483Z,11.73
2023-10-10T06:00:50.494Z,11.84
2023-10-10T06:03:18.391Z,11.92
2023-10-10T06:05:45.823Z,12.05
2023-10-10T06:08:14.355Z,12.18
2023-10-10T06:10:41.404Z,12.28
2023-10-10T06:13:08.813Z,12.39
2023-10-10T06:15:36.530Z,12.45
2023-10-10T06:18:19.625Z,12.54
2023-10-10T06:21:03.043Z,12.62
2023-10-10T06:23:35.257Z,12.68
2023-10-10T06:26:03.897Z,12.82
2023-10-10T06:28:37.270Z,12.91
2023-10-10T06:31:11.501Z,13.03
2023-10-10T06:33:42.485Z,13.12
2023-10-10T06:36:40.135Z,13.18
2023-10-10T06:39:06.931Z,13.23
2023-10-10T06:41:43.454Z,13.25
2023-10-10T06:44:18.622Z,13.34
2023-10-10T06:46:49.935Z,13.42
2023-10-10T06:49:17.371Z,13.48
2023-10-10T06:51:44.408Z,13.56
2023-10-10T06:54:28.827Z,13.64
2023-10-10T06:57:02.364Z,13.73
2023-10-10T06:59:30.282Z,13.72
2023-10-10T07:02:01.757Z,13.64
2023-10-10T07:04:29.336Z,13.62
2023-10-10T07:07:02.100Z,13.68
2023-10-10T07:09:32.637Z,13.78
2023-10-10T07:12:12.833Z,13.88
2023-10-10T07:14:48.243Z,13.98
2023-10-10T07:17:15.889Z,14.11
2023-10-10T07:20:03.957Z,14.22
2023-10-10T07:22:35.896Z,14.41
2023-10-10T07:25:25.742Z,14.58
2023-10-10T07:27:52.665Z,14.70
2023-10-10T07:30:19.960Z,14.69
2023-10-10T07:32:51.675Z,14.65
2023-10-10T07:35:26.763Z,14.58
2023-10-10T07:37:54.463Z,14.58
2023-10-10T07:40:22.338Z,14.70
2023-10-10T07:43:00.381Z,14.84
2023-10-10T07:45:43.255Z,15.11
2023-10-10T07:48:11.550Z,15.25
2023-10-10T07:50:57.251Z,15.32
2023-10-10T07:53:35.429Z,15.45
2023-10-10T07:56:02.624Z,15.54
2023-10-10T07:58:52.757Z,15.69
2023-10-10T08:01:20.743Z,15.66
2023-10-10T08:03:48.746Z,15.66
2023-10-10T08:06:23.503Z,15.69
2023-10-10T08:09:12.081Z,15.77
2023-10-10T08:11:39.394Z,15.92
2023-10-10T08:14:13.299Z,16.02
2023-10-10T08:16:42.339Z,16.22
2023-10-10T08:19:11.850Z,16.32
2023-10-10T08:21:40.741Z,16.17
2023-10-10T08:24:09.307Z,16.18
2023-10-10T08:26:42.588Z,16.14
2023-10-10T08:29:10.645Z,16.26
2023-10-10T08:31:39.419Z,16.64
2023-10-10T08:34:09.816Z,17.14
2023-10-10T08:36:38.500Z,17.34
2023-10-10T08:39:18.033Z,17.75
2023-10-10T08:41:46.485Z,19.08
2023-10-10T08:44:18.817Z,20.79
2023-10-10T08:46:49.844Z,20.40
2023-10-10T08:49:17.287Z,20.31
2023-10-10T08:51:46.310Z,21.42
2023-10-10T08:54:17.289Z,21.23
2023-10-10T08:57:11.576Z,21.35
2023-10-10T08:59:43.566Z,20.90
2023-10-10T09:02:13.727Z,20.56
2023-10-10T09:04:40.688Z,20.30
2023-10-10T09:07:12.470Z,19.68
2023-10-10T09:09:41.201Z,19.51
2023-10-10T09:12:16.188Z,19.79
2023-10-10T09:14:51.546Z,20.46
2023-10-10T09:17:46.496Z,21.92
2023-10-10T09:20:24.453Z,21.51
2023-10-10T09:23:13.365Z,21.37
2023-10-10T09:25:45.164Z,20.84
2023-10-10T09:28:16.674Z,22.91
2023-10-10T09:31:06.601Z,24.76
2023-10-10T09:33:35.184Z,25.34
2023-10-10T09:36:10.268Z,25.41
2023-10-10T09:38:45.109Z,25.96
2023-10-10T09:41:32.431Z,25.35
2023-10-10T09:44:25.464Z,25.69
2023-10-10T09:47:04.013Z,25.16
2023-10-10T09:49:53.045Z,25.05
2023-10-10T09:52:40.843Z,26.75
2023-10-10T09:55:15.553Z,25.48
2023-10-10T09:57:59.364Z,24.39
2023-10-10T10:00:34.470Z,23.83
2023-10-10T10:03:22.065Z,24.36
2023-10-10T10:06:19.332Z,24.61
2023-10-10T10:09:10.635Z,25.22
2023-10-10T10:11:53.076Z,27.43
2023-10-10T10:14:29.889Z,28.55
2023-10-10T10:17:17.314Z,29.65
2023-10-10T10:19:49.304Z,29.92
2023-10-10T10:22:18.754Z,29.88
2023-10-10T10:24:46.366Z,29.92
2023-10-10T10:27:33.201Z,30.19
2023-10-10T10:30:20.756Z,30.97
2023-10-10T10:32:54.767Z,31.19
2023-10-10T10:35:37.567Z,30.82
2023-10-10T10:38:07.926Z,30.22
2023-10-10T10:40:41.578Z,30.37
2023-10-10T10:43:15.746Z,28.97
2023-10-10T10:46:08.573Z,28.01
2023-10-10T10:48:36.725Z,26.11
2023-10-10T10:51:26.274Z,25.94
2023-10-10T10:54:03.474Z,26.43
2023-10-10T10:56:31.084Z,28.24
2023-10-10T10:59:15.325Z,30.38
2023-10-10T11:01:52.887Z,31.24
2023-10-10T11:04:44.437Z,29.58
2023-10-10T11:07:27.365Z,28.41
2023-10-10T11:09:55.901Z,26.98
2023-10-10T11:12:33.256Z,25.62
2023-10-10T11:15:06.182Z,25.21
2023-10-10T11:17:39.482Z,25.17
2023-10-10T11:20:29.377Z,24.55
2023-10-10T11:23:08.704Z,24.07
2023-10-10T11:25:48.236Z,23.84
2023-10-10T11:28:25.633Z,23.56
2023-10-10T11:30:54.443Z,23.76
2023-10-10T11:33:47.484Z,23.48
2023-10-10T11:36:31.312Z,22.87
2023-10-10T11:39:18.165Z,22.63
2023-10-10T11:41:46.757Z,23.09
2023-10-10T11:44:20.295Z,22.81
2023-10-10T11:46:48.325Z,23.44
2023-10-10T11:49:16.736Z,23.09
2023-10-10T11:51:43.629Z,22.76
2023-10-10T11:54:10.560Z,22.82
2023-10-10T11:56:37.406Z,22.98
2023-10-10T11:59:11.519Z,23.32
2023-10-10T12:01:58.704Z,23.41
2023-10-10T12:04:34.592Z,22.75
2023-10-10T12:07:06.171Z,21.73
2023-10-10T12:09:34.031Z,21.56
2023-10-10T12:12:04.258Z,22.19
2023-10-10T12:14:32.519Z,24.07
2023-10-10T12:17:00.745Z,24.89
2023-10-10T12:19:30.278Z,26.46
2023-10-10T12:22:02.662Z,26.86
2023-10-10T12:24:30.714Z,27.35
2023-10-10T12:26:57.560Z,27.68
2023-10-10T12:29:25.846Z,28.44
2023-10-10T12:31:57.040Z,28.92
2023-10-10T12:34:24.872Z,28.20
2023-10-10T12:37:00.545Z,27.86
2023-10-10T12:39:31.091Z,28.56
2023-10-10T12:41:58.372Z,30.02
2023-10-10T12:44:25.346Z,30.15
2023-10-10T12:47:00.368Z,30.40
2023-10-10T12:49:30.359Z,30.41
2023-10-10T12:51:58.323Z,29.71
2023-10-10T12:54:36.093Z,28.76
2023-10-10T12:57:07.303Z,27.32
2023-10-10T12:59:35.075Z,26.84
2023-10-10T13:02:04.885Z,26.26
2023-10-10T13:04:37.562Z,25.41
2023-10-10T13:07:05.114Z,25.64
2023-10-10T13:09:33.662Z,25.46
2023-10-10T13:12:04.327Z,25.08
2023-10-10T13:14:34.401Z,24.45
2023-10-10T13:17:22.067Z,24.47
2023-10-10T13:19:50.356Z,24.25
2023-10-10T13:22:22.175Z,23.80
2023-10-10T13:24:50.493Z,24.46
2023-10-10T13:27:19.223Z,24.43
2023-10-10T13:29:46.318Z,24.50
2023-10-10T13:32:13.418Z,24.47
2023-10-10T13:34:40.270Z,24.46
2023-10-10T13:39:45.402Z,24.44
2023-10-10T13:42:15.941Z,25.50
2023-10-10T13:44:43.805Z,24.78
2023-10-10T13:47:11.704Z,24.37
2023-10-10T13:49:45.734Z,23.81
2023-10-10T13:52:14.351Z,23.32
2023-10-10T13:54:41.387Z,23.47
2023-10-10T13:57:09.001Z,23.09
2023-10-10T13:59:36.412Z,23.11
2023-10-10T14:02:05.764Z,23.07
2023-10-10T14:04:47.564Z,22.98
2023-10-10T14:07:17.959Z,23.14
2023-10-10T14:10:02.299Z,22.73
2023-10-10T14:12:33.560Z,22.80
2023-10-10T14:15:02.718Z,22.91
2023-10-10T14:17:31.034Z,23.06
2023-10-10T14:19:59.683Z,22.71
2023-10-10T14:22:28.185Z,22.52
2023-10-10T14:24:58.919Z,22.36
2023-10-10T14:27:27.084Z,22.34
2023-10-10T14:29:56.099Z,21.84
2023-10-10T14:32:38.748Z,21.59
2023-10-10T14:35:07.016Z,22.24
2023-10-10T14:37:49.949Z,22.54
2023-10-10T14:40:20.925Z,23.71
2023-10-10T14:42:47.726Z,24.88
2023-10-10T14:45:14.619Z,25.67
2023-10-10T14:47:45.160Z,26.03
2023-10-10T14:50:14.287Z,26.34
2023-10-10T14:52:48.435Z,25.72
2023-10-10T14:55:28.912Z,25.69
2023-10-10T14:57:57.361Z,25.71
2023-10-10T15:00:26.150Z,25.96
2023-10-10T15:02:56.761Z,26.03
2023-10-10T15:05:27.797Z,25.78
2023-10-10T15:07:55.631Z,26.12
2023-10-10T15:10:27.421Z,26.18
2023-10-10T15:12:55.100Z,25.73
2023-10-10T15:15:24.280Z,26.07
2023-10-10T15:17:51.767Z,25.31
2023-10-10T15:20:18.716Z,23.99
2023-10-10T15:22:45.522Z,22.71
2023-10-10T15:25:13.012Z,22.26
2023-10-10T15:27:43.053Z,22.48
2023-10-10T15:30:10.774Z,21.82
2023-10-10T15:32:57.884Z,21.66
2023-10-10T15:35:25.326Z,21.52
2023-10-10T15:37:53.641Z,21.04
2023-10-10T15:40:23.593Z,20.90
2023-10-10T15:42:52.422Z,20.61
2023-10-10T15:45:22.667Z,20.28
2023-10-10T15:47:54.412Z,19.90
2023-10-10T15:50:25.276Z,19.68
2023-10-10T15:52:52.513Z,19.49
2023-10-10T15:55:24.568Z,19.35
2023-10-10T15:57:54.628Z,19.05
2023-10-10T16:00:31.208Z,18.79
2023-10-10T16:02:58.150Z,18.68
2023-10-10T16:05:26.583Z,18.65
2023-10-10T16:08:08.338Z,18.40
2023-10-10T16:10:38.889Z,18.22
2023-10-10T16:13:08.865Z,18.13
2023-10-10T16:15:35.728Z,18.05
2023-10-10T16:18:05.512Z,17.94
2023-10-10T16:20:36.743Z,17.78
2023-10-10T16:23:04.317Z,17.68
2023-10-10T16:25:31.158Z,17.56
2023-10-10T16:27:59.199Z,17.41
2023-10-10T16:30:26.667Z,17.24
2023-10-10T16:32:53.556Z,17.16
2023-10-10T16:35:21.918Z,17.05
2023-10-10T16:37:50.165Z,16.91
2023-10-10T16:40:18.734Z,16.76
2023-10-10T16:42:46.864Z,16.67
2023-10-10T16:45:13.916Z,16.64
2023-10-10T16:47:43.640Z,16.50
2023-10-10T16:50:11.164Z,16.40
2023-10-10T16:52:41.863Z,16.36
2023-10-10T16:55:13.568Z,16.27
2023-10-10T16:57:41.614Z,16.16
2023-10-10T17:00:14.262Z,16.07
2023-10-10T17:02:41.373Z,16.00
2023-10-10T17:05:14.708Z,15.96
2023-10-10T17:07:42.077Z,15.85
2023-10-10T17:10:14.988Z,15.83
2023-10-10T17:12:45.905Z,15.71
2023-10-10T17:15:20.189Z,15.65
2023-10-10T17:17:47.796Z,15.54
2023-10-10T17:20:18.236Z,15.51
2023-10-10T17:22:52.028Z,15.50
2023-10-10T17:25:19.619Z,15.34
2023-10-10T17:27:50.862Z,15.30
2023-10-10T17:30:17.933Z,15.26
2023-10-10T17:32:47.426Z,15.18
2023-10-10T17:35:14.664Z,15.14
2023-10-10T17:37:41.535Z,15.07
2023-10-10T17:40:14.418Z,15.00
2023-10-10T17:42:47.533Z,14.84
2023-10-10T17:45:14.603Z,14.81
2023-10-10T17:47:41.771Z,14.72
2023-10-10T17:50:09.053Z,14.70
2023-10-10T17:52:35.955Z,14.72
2023-10-10T17:55:03.163Z,14.66
2023-10-10T17:57:32.256Z,14.61
2023-10-10T18:00:00.336Z,14.52
2023-10-10T18:02:27.353Z,14.54
2023-10-10T18:04:54.994Z,14.46
2023-10-10T18:07:24.777Z,14.47
2023-10-10T18:09:55.875Z,14.41
2023-10-10T18:12:23.885Z,14.32
2023-10-10T18:14:54.958Z,14.26
2023-10-10T18:17:23.595Z,14.18
2023-10-10T18:19:51.233Z,14.14
2023-10-10T18:22:20.042Z,14.09
2023-10-10T18:24:48.686Z,14.09
2023-10-10T18:27:18.182Z,14.06
2023-10-10T18:29:45.394Z,14.04
2023-10-10T18:32:12.409Z,13.99
2023-10-10T18:34:42.955Z,14.03
2023-10-10T18:37:14.121Z,13.96
2023-10-10T18:39:43.719Z,13.94
2023-10-10T18:42:12.946Z,13.85
2023-10-10T18:44:41.207Z,13.84
2023-10-10T18:47:10.510Z,13.83
2023-10-10T18:49:37.354Z,13.81
2023-10-10T18:52:06.242Z,13.76
2023-10-10T18:54:33.555Z,13.68
2023-10-10T18:57:00.520Z,13.69
2023-10-10T18:59:29.139Z,13.67
2023-10-10T19:01:57.143Z,13.62
2023-10-10T19:04:24.311Z,13.59
2023-10-10T19:06:51.526Z,13.54
2023-10-10T19:09:19.558Z,13.46
2023-10-10T19:11:46.751Z,13.40
2023-10-10T19:14:14.379Z,13.42
2023-10-10T19:16:41.512Z,13.41
2023-10-10T19:19:08.797Z,13.36
2023-10-10T19:21:36.124Z,13.30
2023-10-10T19:24:03.337Z,13.23
2023-10-10T19:26:30.567Z,13.23
2023-10-10T19:28:58.699Z,13.18
2023-10-10T19:31:25.704Z,13.15
2023-10-10T19:33:52.738Z,13.11
2023-10-10T19:36:21.496Z,13.16
2023-10-10T19:38:49.113Z,13.06
2023-10-10T19:41:16.204Z,13.01
2023-10-10T19:43:43.211Z,13.00
2023-10-10T19:46:13.015Z,13.05
2023-10-10T19:48:43.883Z,13.05
2023-10-10T19:51:18.817Z,13.05
2023-10-10T19:53:50.528Z,13.03
2023-10-10T19:56:18.292Z,12.98
2023-10-10T19:58:47.168Z,12.92
2023-10-10T20:01:15.054Z,12.86
2023-10-10T20:03:44.715Z,12.88
2023-10-10T20:06:22.740Z,12.86
2023-10-10T20:08:54.253Z,12.74
2023-10-10T20:11:22.810Z,12.69
2023-10-10T20:13:50.693Z,12.70
2023-10-10T20:16:20.654Z,12.61
2023-10-10T20:18:48.946Z,12.67
2023-10-10T20:21:17.793Z,12.58
2023-10-10T20:23:45.451Z,12.56
2023-10-10T20:26:20.508Z,12.55
2023-10-10T20:28:49.360Z,12.52
2023-10-10T20:31:19.822Z,12.49
2023-10-10T20:33:49.053Z,12.44
2023-10-10T20:36:18.115Z,12.41
2023-10-10T20:38:45.881Z,12.33
2023-10-10T20:41:15.549Z,12.34
2023-10-10T20:43:44.084Z,12.38
2023-10-10T20:46:20.394Z,12.37
2023-10-10T20:48:48.023Z,12.22
2023-10-10T20:51:15.047Z,12.21
2023-10-10T20:53:46.962Z,12.23
2023-10-10T20:56:14.664Z,12.21
2023-10-10T20:58:41.726Z,12.17
2023-10-10T21:01:13.298Z,12.22
2023-10-10T21:03:40.559Z,12.21
2023-10-10T21:06:07.551Z,12.15
2023-10-10T21:08:34.690Z,12.17
2023-10-10T21:11:08.286Z,12.19
2023-10-10T21:13:35.958Z,12.17
2023-10-10T21:16:03.186Z,12.12
2023-10-10T21:18:30.078Z,12.07
2023-10-10T21:21:04.109Z,12.06
2023-10-10T21:23:32.458Z,11.97
2023-10-10T21:25:59.400Z,11.94
2023-10-10T21:28:26.443Z,11.90
2023-10-10T21:30:54.036Z,11.85
2023-10-10T21:33:21.038Z,11.87
2023-10-10T21:35:50.823Z,11.82
2023-10-10T21:38:18.641Z,11.79
2023-10-10T21:40:45.847Z,11.79
2023-10-10T21:43:12.912Z,11.72
2023-10-10T21:45:40.361Z,11.76
2023-10-10T21:48:10.860Z,11.76
2023-10-10T21:50:42.206Z,11.71
2023-10-10T21:53:09.431Z,11.77
2023-10-10T21:55:38.667Z,11.73
2023-10-10T21:58:06.431Z,11.68
2023-10-10T22:00:33.612Z,11.66
2023-10-10T22:03:05.947Z,11.63
2023-10-10T22:05:33.800Z,11.64
2023-10-10T22:08:01.884Z,11.66
2023-10-10T22:10:33.739Z,11.63
2023-10-10T22:13:07.878Z,11.58
2023-10-10T22:15:36.430Z,11.42
2023-10-10T22:18:07.629Z,11.47
2023-10-10T22:20:35.494Z,11.48
2023-10-10T22:23:02.754Z,11.41
2023-10-10T22:25:33.265Z,11.36
2023-10-10T22:28:02.062Z,11.32
2023-10-10T22:30:33.880Z,11.36
2023-10-10T22:33:01.474Z,11.28
2023-10-10T22:35:29.871Z,11.29
2023-10-10T22:37:59.982Z,11.23
2023-10-10T22:40:27.910Z,11.27
2023-10-10T22:42:55.853Z,11.21
2023-10-10T22:45:23.705Z,11.15
2023-10-10T22:47:54.864Z,11.08
2023-10-10T22:50:22.576Z,11.08
2023-10-10T22:52:54.311Z,11.07
2023-10-10T22:55:22.126Z,11.06
2023-10-10T22:57:52.392Z,11.06
2023-10-10T23:00:30.304Z,11.06
2023-10-10T23:02:59.752Z,11.05
2023-10-10T23:05:28.427Z,11.06
2023-10-10T23:07:58.635Z,11.02
2023-10-10T23:10:25.602Z,11.04
2023-10-10T23:12:53.420Z,11.07
2023-10-10T23:15:27.874Z,11.08
2023-10-10T23:17:59.925Z,11.13
2023-10-10T23:20:28.680Z,11.03
2023-10-10T23:23:00.019Z,10.96
2023-10-10T23:25:27.502Z,10.96
2023-10-10T23:27:57.960Z,10.99
2023-10-10T23:30:28.917Z,10.88
2023-10-10T23:32:57.737Z,10.91
2023-10-10T23:35:25.984Z,10.93
2023-10-10T23:38:01.618Z,10.81
2023-10-10T23:40:58.391Z,10.81
2023-10-10T23:43:25.222Z,10.80
2023-10-10T23:45:56.030Z,10.75
2023-10-10T23:48:30.323Z,10.74
2023-10-10T23:50:58.199Z,10.80
2023-10-10T23:53:25.092Z,10.84
2023-10-10T23:55:56.047Z,10.82
2023-10-10T23:58:26.576Z,10.75
